sensor_id;sensor_type;location;lat;lon;timestamp;P1;durP1;ratioP1;P2;durP2;ratioP2
12314;SDS011;23886;46.614;14.276;2023-04-03T00:00:28;1.20;;;1.10;;
12314;SDS011;23886;46.614;14.276;2023-04-03T00:02:55;1.40;;;1.30;;
12314;SDS011;23886;46.614;14.276;2023-04-03T00:05:22;2.17;;;1.27;;
12314;SDS011;23886;46.614;14.276;2023-04-03T00:07:49;1.23;;;1.13;;
12314;SDS011;23886;46.614;14.276;2023-04-03T00:10:17;1.47;;;1.20;;
12314;SDS011;23886;46.614;14.276;2023-04-03T00:12:44;1.10;;;1.00;;
12314;SDS011;23886;46.614;14.276;2023-04-03T00:15:11;1.40;;;1.20;;
12314;SDS011;23886;46.614;14.276;2023-04-03T00:17:38;1.50;;;1.37;;
12314;SDS011;23886;46.614;14.276;2023-04-03T00:20:06;1.70;;;1.10;;
12314;SDS011;23886;46.614;14.276;2023-04-03T00:22:34;1.10;;;1.00;;
12314;SDS011;23886;46.614;14.276;2023-04-03T00:25:01;1.40;;;1.13;;
12314;SDS011;23886;46.614;14.276;2023-04-03T00:27:29;1.03;;;1.03;;
12314;SDS011;23886;46.614;14.276;2023-04-03T00:29:56;1.23;;;1.20;;
12314;SDS011;23886;46.614;14.276;2023-04-03T00:32:23;1.67;;;1.30;;
12314;SDS011;23886;46.614;14.276;2023-04-03T00:34:50;1.20;;;1.10;;
12314;SDS011;23886;46.614;14.276;2023-04-03T00:37:17;1.33;;;1.23;;
12314;SDS011;23886;46.614;14.276;2023-04-03T00:39:44;2.50;;;1.47;;
12314;SDS011;23886;46.614;14.276;2023-04-03T00:42:11;1.37;;;1.27;;
12314;SDS011;23886;46.614;14.276;2023-04-03T00:47:44;2.10;;;1.30;;
12314;SDS011;23886;46.614;14.276;2023-04-03T00:50:11;1.40;;;1.30;;
12314;SDS011;23886;46.614;14.276;2023-04-03T00:52:38;2.03;;;1.40;;
12314;SDS011;23886;46.614;14.276;2023-04-03T00:55:07;1.30;;;1.20;;
12314;SDS011;23886;46.614;14.276;2023-04-03T00:57:35;1.40;;;1.30;;
12314;SDS011;23886;46.614;14.276;2023-04-03T01:00:05;1.57;;;1.30;;
12314;SDS011;23886;46.614;14.276;2023-04-03T01:02:36;1.23;;;1.00;;
12314;SDS011;23886;46.614;14.276;2023-04-03T01:05:07;1.30;;;1.20;;
12314;SDS011;23886;46.614;14.276;2023-04-03T01:07:34;1.30;;;1.20;;
12314;SDS011;23886;46.614;14.276;2023-04-03T01:10:03;1.30;;;1.20;;
12314;SDS011;23886;46.614;14.276;2023-04-03T01:12:33;1.87;;;1.43;;
12314;SDS011;23886;46.614;14.276;2023-04-03T01:15:02;1.30;;;1.20;;
12314;SDS011;23886;46.614;14.276;2023-04-03T01:17:33;2.40;;;1.60;;
12314;SDS011;23886;46.614;14.276;2023-04-03T01:20:18;1.90;;;1.47;;
12314;SDS011;23886;46.614;14.276;2023-04-03T01:23:29;2.23;;;1.80;;
12314;SDS011;23886;46.614;14.276;2023-04-03T01:26:07;1.50;;;1.40;;
12314;SDS011;23886;46.614;14.276;2023-04-03T01:28:37;1.63;;;1.27;;
12314;SDS011;23886;46.614;14.276;2023-04-03T01:31:06;2.20;;;1.80;;
12314;SDS011;23886;46.614;14.276;2023-04-03T01:33:41;1.70;;;1.60;;
12314;SDS011;23886;46.614;14.276;2023-04-03T01:36:09;2.00;;;1.80;;
12314;SDS011;23886;46.614;14.276;2023-04-03T01:38:39;2.20;;;2.00;;
12314;SDS011;23886;46.614;14.276;2023-04-03T01:41:06;1.77;;;1.67;;
12314;SDS011;23886;46.614;14.276;2023-04-03T01:43:33;2.30;;;2.10;;
12314;SDS011;23886;46.614;14.276;2023-04-03T01:46:00;2.03;;;1.80;;
12314;SDS011;23886;46.614;14.276;2023-04-03T01:48:27;2.53;;;2.00;;
12314;SDS011;23886;46.614;14.276;2023-04-03T01:50:55;2.30;;;2.07;;
12314;SDS011;23886;46.614;14.276;2023-04-03T01:53:22;2.00;;;1.90;;
12314;SDS011;23886;46.614;14.276;2023-04-03T01:55:49;2.00;;;1.90;;
12314;SDS011;23886;46.614;14.276;2023-04-03T01:58:16;2.40;;;2.20;;
12314;SDS011;23886;46.614;14.276;2023-04-03T02:00:43;2.03;;;1.87;;
12314;SDS011;23886;46.614;14.276;2023-04-03T02:03:10;2.23;;;2.03;;
12314;SDS011;23886;46.614;14.276;2023-04-03T02:05:37;2.40;;;2.20;;
12314;SDS011;23886;46.614;14.276;2023-04-03T02:08:06;2.27;;;2.07;;
12314;SDS011;23886;46.614;14.276;2023-04-03T02:10:33;2.17;;;2.00;;
12314;SDS011;23886;46.614;14.276;2023-04-03T02:13:00;2.73;;;2.43;;
12314;SDS011;23886;46.614;14.276;2023-04-03T02:15:27;2.30;;;2.10;;
12314;SDS011;23886;46.614;14.276;2023-04-03T02:17:54;2.50;;;2.30;;
12314;SDS011;23886;46.614;14.276;2023-04-03T02:20:21;2.57;;;2.37;;
12314;SDS011;23886;46.614;14.276;2023-04-03T02:22:48;2.50;;;2.30;;
12314;SDS011;23886;46.614;14.276;2023-04-03T02:25:16;2.47;;;2.27;;
12314;SDS011;23886;46.614;14.276;2023-04-03T02:27:43;2.50;;;2.30;;
12314;SDS011;23886;46.614;14.276;2023-04-03T02:30:11;2.77;;;2.47;;
12314;SDS011;23886;46.614;14.276;2023-04-03T02:32:39;2.47;;;2.27;;
12314;SDS011;23886;46.614;14.276;2023-04-03T02:35:07;3.57;;;2.53;;
12314;SDS011;23886;46.614;14.276;2023-04-03T02:37:34;2.40;;;2.20;;
12314;SDS011;23886;46.614;14.276;2023-04-03T02:40:01;3.37;;;2.40;;
12314;SDS011;23886;46.614;14.276;2023-04-03T02:42:30;2.60;;;2.20;;
12314;SDS011;23886;46.614;14.276;2023-04-03T02:44:57;2.90;;;2.60;;
12314;SDS011;23886;46.614;14.276;2023-04-03T02:47:25;3.63;;;3.13;;
12314;SDS011;23886;46.614;14.276;2023-04-03T02:49:52;4.33;;;3.13;;
12314;SDS011;23886;46.614;14.276;2023-04-03T02:52:19;3.73;;;2.70;;
12314;SDS011;23886;46.614;14.276;2023-04-03T02:54:47;2.83;;;2.63;;
12314;SDS011;23886;46.614;14.276;2023-04-03T02:57:14;2.60;;;2.40;;
12314;SDS011;23886;46.614;14.276;2023-04-03T02:59:43;3.20;;;2.63;;
12314;SDS011;23886;46.614;14.276;2023-04-03T03:02:10;2.57;;;2.37;;
12314;SDS011;23886;46.614;14.276;2023-04-03T03:04:37;2.50;;;2.30;;
12314;SDS011;23886;46.614;14.276;2023-04-03T03:07:04;3.07;;;2.37;;
12314;SDS011;23886;46.614;14.276;2023-04-03T03:09:31;2.80;;;2.50;;
12314;SDS011;23886;46.614;14.276;2023-04-03T03:11:58;2.60;;;2.40;;
12314;SDS011;23886;46.614;14.276;2023-04-03T03:14:25;3.43;;;2.60;;
12314;SDS011;23886;46.614;14.276;2023-04-03T03:16:53;2.87;;;2.67;;
12314;SDS011;23886;46.614;14.276;2023-04-03T03:19:20;2.63;;;2.43;;
12314;SDS011;23886;46.614;14.276;2023-04-03T03:21:47;3.03;;;2.80;;
12314;SDS011;23886;46.614;14.276;2023-04-03T03:24:14;2.50;;;2.30;;
12314;SDS011;23886;46.614;14.276;2023-04-03T03:26:42;3.83;;;2.80;;
12314;SDS011;23886;46.614;14.276;2023-04-03T03:29:09;2.87;;;2.67;;
12314;SDS011;23886;46.614;14.276;2023-04-03T03:31:35;2.60;;;2.40;;
12314;SDS011;23886;46.614;14.276;2023-04-03T03:34:04;2.40;;;2.20;;
12314;SDS011;23886;46.614;14.276;2023-04-03T03:36:31;3.70;;;2.40;;
12314;SDS011;23886;46.614;14.276;2023-04-03T03:38:58;2.90;;;2.60;;
12314;SDS011;23886;46.614;14.276;2023-04-03T03:41:25;3.33;;;2.70;;
12314;SDS011;23886;46.614;14.276;2023-04-03T03:43:52;3.63;;;3.33;;
12314;SDS011;23886;46.614;14.276;2023-04-03T03:46:19;3.10;;;2.90;;
12314;SDS011;23886;46.614;14.276;2023-04-03T03:48:46;2.90;;;2.60;;
12314;SDS011;23886;46.614;14.276;2023-04-03T03:51:14;2.73;;;2.53;;
12314;SDS011;23886;46.614;14.276;2023-04-03T03:53:41;3.17;;;2.60;;
12314;SDS011;23886;46.614;14.276;2023-04-03T03:56:08;3.10;;;2.80;;
12314;SDS011;23886;46.614;14.276;2023-04-03T03:58:35;2.60;;;2.40;;
12314;SDS011;23886;46.614;14.276;2023-04-03T04:01:03;3.07;;;2.77;;
12314;SDS011;23886;46.614;14.276;2023-04-03T04:03:31;2.60;;;2.40;;
12314;SDS011;23886;46.614;14.276;2023-04-03T04:05:59;2.97;;;2.40;;
12314;SDS011;23886;46.614;14.276;2023-04-03T04:08:27;2.50;;;2.30;;
12314;SDS011;23886;46.614;14.276;2023-04-03T04:10:54;3.30;;;2.57;;
12314;SDS011;23886;46.614;14.276;2023-04-03T04:13:21;3.00;;;2.70;;
12314;SDS011;23886;46.614;14.276;2023-04-03T04:15:48;2.30;;;2.10;;
12314;SDS011;23886;46.614;14.276;2023-04-03T04:18:15;2.50;;;2.30;;
12314;SDS011;23886;46.614;14.276;2023-04-03T04:20:44;4.77;;;2.70;;
12314;SDS011;23886;46.614;14.276;2023-04-03T04:23:11;3.33;;;2.60;;
12314;SDS011;23886;46.614;14.276;2023-04-03T04:25:39;2.57;;;2.37;;
12314;SDS011;23886;46.614;14.276;2023-04-03T04:28:06;2.60;;;2.30;;
12314;SDS011;23886;46.614;14.276;2023-04-03T04:30:33;2.63;;;2.43;;
12314;SDS011;23886;46.614;14.276;2023-04-03T04:33:00;3.00;;;2.57;;
12314;SDS011;23886;46.614;14.276;2023-04-03T04:35:27;3.20;;;2.67;;
12314;SDS011;23886;46.614;14.276;2023-04-03T04:37:55;2.40;;;2.20;;
12314;SDS011;23886;46.614;14.276;2023-04-03T04:40:22;2.70;;;2.20;;
12314;SDS011;23886;46.614;14.276;2023-04-03T04:42:50;2.87;;;2.40;;
12314;SDS011;23886;46.614;14.276;2023-04-03T04:45:17;2.80;;;2.60;;
12314;SDS011;23886;46.614;14.276;2023-04-03T04:47:44;3.03;;;2.73;;
12314;SDS011;23886;46.614;14.276;2023-04-03T04:50:11;3.43;;;3.13;;
12314;SDS011;23886;46.614;14.276;2023-04-03T04:52:38;3.50;;;3.20;;
12314;SDS011;23886;46.614;14.276;2023-04-03T04:55:06;3.87;;;3.30;;
12314;SDS011;23886;46.614;14.276;2023-04-03T04:57:34;2.80;;;2.60;;
12314;SDS011;23886;46.614;14.276;2023-04-03T05:00:03;2.60;;;2.23;;
12314;SDS011;23886;46.614;14.276;2023-04-03T05:02:31;2.37;;;2.17;;
12314;SDS011;23886;46.614;14.276;2023-04-03T05:04:58;2.40;;;2.20;;
12314;SDS011;23886;46.614;14.276;2023-04-03T05:07:25;2.53;;;2.33;;
12314;SDS011;23886;46.614;14.276;2023-04-03T05:09:52;2.87;;;2.67;;
12314;SDS011;23886;46.614;14.276;2023-04-03T05:12:19;2.20;;;2.00;;
12314;SDS011;23886;46.614;14.276;2023-04-03T05:14:47;2.80;;;2.50;;
12314;SDS011;23886;46.614;14.276;2023-04-03T05:17:15;3.13;;;2.83;;
12314;SDS011;23886;46.614;14.276;2023-04-03T05:19:42;4.50;;;2.80;;
12314;SDS011;23886;46.614;14.276;2023-04-03T05:22:09;2.60;;;2.40;;
12314;SDS011;23886;46.614;14.276;2023-04-03T05:24:36;2.30;;;2.10;;
12314;SDS011;23886;46.614;14.276;2023-04-03T05:27:03;2.67;;;2.20;;
12314;SDS011;23886;46.614;14.276;2023-04-03T05:29:30;2.43;;;2.23;;
12314;SDS011;23886;46.614;14.276;2023-04-03T05:31:57;3.23;;;2.20;;
12314;SDS011;23886;46.614;14.276;2023-04-03T05:34:25;2.70;;;2.13;;
12314;SDS011;23886;46.614;14.276;2023-04-03T05:36:53;2.60;;;2.40;;
12314;SDS011;23886;46.614;14.276;2023-04-03T05:39:20;3.20;;;2.20;;
12314;SDS011;23886;46.614;14.276;2023-04-03T05:41:47;2.20;;;2.00;;
12314;SDS011;23886;46.614;14.276;2023-04-03T05:44:14;2.60;;;2.40;;
12314;SDS011;23886;46.614;14.276;2023-04-03T05:46:41;2.20;;;2.00;;
12314;SDS011;23886;46.614;14.276;2023-04-03T05:49:08;3.13;;;2.10;;
12314;SDS011;23886;46.614;14.276;2023-04-03T05:51:37;2.20;;;2.00;;
12314;SDS011;23886;46.614;14.276;2023-04-03T05:54:06;3.67;;;2.20;;
12314;SDS011;23886;46.614;14.276;2023-04-03T05:56:37;3.27;;;2.10;;
12314;SDS011;23886;46.614;14.276;2023-04-03T05:59:04;2.00;;;1.80;;
12314;SDS011;23886;46.614;14.276;2023-04-03T06:01:32;2.07;;;1.90;;
12314;SDS011;23886;46.614;14.276;2023-04-03T06:04:00;3.17;;;2.00;;
12314;SDS011;23886;46.614;14.276;2023-04-03T06:09:16;2.17;;;1.97;;
12314;SDS011;23886;46.614;14.276;2023-04-03T06:11:44;2.17;;;1.97;;
12314;SDS011;23886;46.614;14.276;2023-04-03T06:14:11;4.80;;;2.20;;
12314;SDS011;23886;46.614;14.276;2023-04-03T06:16:39;2.30;;;2.10;;
12314;SDS011;23886;46.614;14.276;2023-04-03T06:19:06;2.00;;;1.80;;
12314;SDS011;23886;46.614;14.276;2023-04-03T06:21:34;1.90;;;1.80;;
12314;SDS011;23886;46.614;14.276;2023-04-03T06:24:02;1.90;;;1.70;;
12314;SDS011;23886;46.614;14.276;2023-04-03T06:26:30;2.50;;;2.23;;
12314;SDS011;23886;46.614;14.276;2023-04-03T06:28:58;2.17;;;1.80;;
12314;SDS011;23886;46.614;14.276;2023-04-03T06:31:26;1.77;;;1.63;;
12314;SDS011;23886;46.614;14.276;2023-04-03T06:33:53;1.80;;;1.60;;
12314;SDS011;23886;46.614;14.276;2023-04-03T06:36:20;1.70;;;1.60;;
12314;SDS011;23886;46.614;14.276;2023-04-03T06:38:47;1.60;;;1.50;;
12314;SDS011;23886;46.614;14.276;2023-04-03T06:41:16;1.80;;;1.57;;
12314;SDS011;23886;46.614;14.276;2023-04-03T06:43:43;1.83;;;1.73;;
12314;SDS011;23886;46.614;14.276;2023-04-03T06:46:12;2.93;;;1.67;;
12314;SDS011;23886;46.614;14.276;2023-04-03T06:48:41;1.43;;;1.40;;
12314;SDS011;23886;46.614;14.276;2023-04-03T06:51:12;2.07;;;1.67;;
12314;SDS011;23886;46.614;14.276;2023-04-03T06:53:43;2.47;;;1.97;;
12314;SDS011;23886;46.614;14.276;2023-04-03T06:56:11;1.87;;;1.67;;
12314;SDS011;23886;46.614;14.276;2023-04-03T06:58:39;1.47;;;1.37;;
12314;SDS011;23886;46.614;14.276;2023-04-03T07:01:07;2.47;;;1.60;;
12314;SDS011;23886;46.614;14.276;2023-04-03T07:03:34;1.97;;;1.50;;
12314;SDS011;23886;46.614;14.276;2023-04-03T07:06:02;2.00;;;1.80;;
12314;SDS011;23886;46.614;14.276;2023-04-03T07:08:29;1.63;;;1.50;;
12314;SDS011;23886;46.614;14.276;2023-04-03T07:10:56;2.47;;;1.63;;
12314;SDS011;23886;46.614;14.276;2023-04-03T07:13:24;1.77;;;1.60;;
12314;SDS011;23886;46.614;14.276;2023-04-03T07:15:53;1.67;;;1.57;;
12314;SDS011;23886;46.614;14.276;2023-04-03T07:18:20;1.63;;;1.53;;
12314;SDS011;23886;46.614;14.276;2023-04-03T07:20:47;2.30;;;1.40;;
12314;SDS011;23886;46.614;14.276;2023-04-03T07:23:14;2.00;;;1.90;;
12314;SDS011;23886;46.614;14.276;2023-04-03T07:25:42;3.23;;;1.80;;
12314;SDS011;23886;46.614;14.276;2023-04-03T07:28:10;1.50;;;1.40;;
12314;SDS011;23886;46.614;14.276;2023-04-03T07:30:47;2.37;;;1.63;;
12314;SDS011;23886;46.614;14.276;2023-04-03T07:33:17;1.57;;;1.47;;
12314;SDS011;23886;46.614;14.276;2023-04-03T07:35:45;1.60;;;1.50;;
12314;SDS011;23886;46.614;14.276;2023-04-03T07:38:13;1.63;;;1.50;;
12314;SDS011;23886;46.614;14.276;2023-04-03T07:40:41;2.70;;;2.10;;
12314;SDS011;23886;46.614;14.276;2023-04-03T07:43:12;1.60;;;1.50;;
12314;SDS011;23886;46.614;14.276;2023-04-03T07:45:40;1.60;;;1.50;;
12314;SDS011;23886;46.614;14.276;2023-04-03T07:48:07;1.70;;;1.60;;
12314;SDS011;23886;46.614;14.276;2023-04-03T07:50:35;2.23;;;1.80;;
12314;SDS011;23886;46.614;14.276;2023-04-03T07:53:02;1.50;;;1.40;;
12314;SDS011;23886;46.614;14.276;2023-04-03T07:55:29;2.00;;;1.80;;
12314;SDS011;23886;46.614;14.276;2023-04-03T07:57:58;1.70;;;1.60;;
12314;SDS011;23886;46.614;14.276;2023-04-03T08:00:25;2.23;;;1.77;;
12314;SDS011;23886;46.614;14.276;2023-04-03T08:02:52;1.30;;;1.20;;
12314;SDS011;23886;46.614;14.276;2023-04-03T08:05:19;4.53;;;1.33;;
12314;SDS011;23886;46.614;14.276;2023-04-03T08:07:48;1.30;;;1.10;;
12314;SDS011;23886;46.614;14.276;2023-04-03T08:10:15;1.63;;;1.30;;
12314;SDS011;23886;46.614;14.276;2023-04-03T08:12:45;2.17;;;1.50;;
12314;SDS011;23886;46.614;14.276;2023-04-03T08:15:12;1.53;;;1.27;;
12314;SDS011;23886;46.614;14.276;2023-04-03T08:17:39;1.37;;;1.27;;
12314;SDS011;23886;46.614;14.276;2023-04-03T08:20:07;1.57;;;1.23;;
12314;SDS011;23886;46.614;14.276;2023-04-03T08:22:36;1.50;;;1.40;;
12314;SDS011;23886;46.614;14.276;2023-04-03T08:25:04;1.27;;;1.00;;
12314;SDS011;23886;46.614;14.276;2023-04-03T08:27:32;1.30;;;1.20;;
12314;SDS011;23886;46.614;14.276;2023-04-03T08:29:59;1.23;;;1.13;;
12314;SDS011;23886;46.614;14.276;2023-04-03T08:32:26;0.97;;;0.97;;
12314;SDS011;23886;46.614;14.276;2023-04-03T08:34:53;2.20;;;1.10;;
12314;SDS011;23886;46.614;14.276;2023-04-03T08:37:20;1.00;;;1.00;;
12314;SDS011;23886;46.614;14.276;2023-04-03T08:39:47;1.50;;;1.40;;
12314;SDS011;23886;46.614;14.276;2023-04-03T08:42:18;1.20;;;1.10;;
12314;SDS011;23886;46.614;14.276;2023-04-03T08:44:57;1.30;;;1.20;;
12314;SDS011;23886;46.614;14.276;2023-04-03T08:47:28;0.87;;;0.87;;
12314;SDS011;23886;46.614;14.276;2023-04-03T08:50:06;1.33;;;1.20;;
12314;SDS011;23886;46.614;14.276;2023-04-03T08:52:38;1.10;;;1.00;;
12314;SDS011;23886;46.614;14.276;2023-04-03T08:55:07;1.00;;;1.00;;
12314;SDS011;23886;46.614;14.276;2023-04-03T08:57:45;1.33;;;1.10;;
12314;SDS011;23886;46.614;14.276;2023-04-03T09:00:16;0.80;;;0.80;;
12314;SDS011;23886;46.614;14.276;2023-04-03T09:02:45;1.10;;;1.00;;
12314;SDS011;23886;46.614;14.276;2023-04-03T09:05:14;1.70;;;1.17;;
12314;SDS011;23886;46.614;14.276;2023-04-03T09:07:43;1.40;;;1.30;;
12314;SDS011;23886;46.614;14.276;2023-04-03T09:10:13;1.13;;;1.03;;
12314;SDS011;23886;46.614;14.276;2023-04-03T09:12:42;1.00;;;1.00;;
12314;SDS011;23886;46.614;14.276;2023-04-03T09:15:18;1.00;;;1.00;;
12314;SDS011;23886;46.614;14.276;2023-04-03T09:17:58;0.90;;;0.90;;
12314;SDS011;23886;46.614;14.276;2023-04-03T09:20:31;0.90;;;0.90;;
12314;SDS011;23886;46.614;14.276;2023-04-03T09:25:57;2.17;;;1.03;;
12314;SDS011;23886;46.614;14.276;2023-04-03T09:28:31;1.10;;;1.00;;
12314;SDS011;23886;46.614;14.276;2023-04-03T09:31:01;1.13;;;1.03;;
12314;SDS011;23886;46.614;14.276;2023-04-03T09:33:37;1.30;;;1.20;;
12314;SDS011;23886;46.614;14.276;2023-04-03T09:36:06;1.90;;;1.00;;
12314;SDS011;23886;46.614;14.276;2023-04-03T09:38:33;1.30;;;1.13;;
12314;SDS011;23886;46.614;14.276;2023-04-03T09:41:04;0.80;;;0.80;;
12314;SDS011;23886;46.614;14.276;2023-04-03T09:43:34;1.00;;;1.00;;
12314;SDS011;23886;46.614;14.276;2023-04-03T09:46:18;2.40;;;1.27;;
12314;SDS011;23886;46.614;14.276;2023-04-03T09:48:55;0.97;;;0.97;;
12314;SDS011;23886;46.614;14.276;2023-04-03T09:51:25;1.20;;;1.10;;
12314;SDS011;23886;46.614;14.276;2023-04-03T09:53:53;0.80;;;0.80;;
12314;SDS011;23886;46.614;14.276;2023-04-03T09:56:22;1.50;;;1.00;;
12314;SDS011;23886;46.614;14.276;2023-04-03T09:59:02;1.10;;;1.10;;
12314;SDS011;23886;46.614;14.276;2023-04-03T10:01:35;1.23;;;1.00;;
12314;SDS011;23886;46.614;14.276;2023-04-03T10:04:08;2.53;;;1.10;;
12314;SDS011;23886;46.614;14.276;2023-04-03T10:06:37;0.90;;;0.90;;
12314;SDS011;23886;46.614;14.276;2023-04-03T10:09:15;1.20;;;1.10;;
12314;SDS011;23886;46.614;14.276;2023-04-03T10:14:33;1.17;;;1.13;;
12314;SDS011;23886;46.614;14.276;2023-04-03T10:17:13;1.20;;;1.10;;
12314;SDS011;23886;46.614;14.276;2023-04-03T10:19:45;1.90;;;1.33;;
12314;SDS011;23886;46.614;14.276;2023-04-03T10:22:18;2.57;;;1.30;;
12314;SDS011;23886;46.614;14.276;2023-04-03T10:24:54;1.23;;;1.10;;
12314;SDS011;23886;46.614;14.276;2023-04-03T10:27:31;1.43;;;1.10;;
12314;SDS011;23886;46.614;14.276;2023-04-03T10:30:14;1.20;;;1.10;;
12314;SDS011;23886;46.614;14.276;2023-04-03T10:32:51;1.27;;;1.17;;
12314;SDS011;23886;46.614;14.276;2023-04-03T10:35:30;1.30;;;1.20;;
12314;SDS011;23886;46.614;14.276;2023-04-03T10:38:08;0.90;;;0.90;;
12314;SDS011;23886;46.614;14.276;2023-04-03T10:40:43;1.77;;;1.00;;
12314;SDS011;23886;46.614;14.276;2023-04-03T10:43:17;1.20;;;1.10;;
12314;SDS011;23886;46.614;14.276;2023-04-03T10:45:55;1.00;;;0.97;;
12314;SDS011;23886;46.614;14.276;2023-04-03T10:48:33;1.40;;;1.30;;
12314;SDS011;23886;46.614;14.276;2023-04-03T10:51:18;1.80;;;1.30;;
12314;SDS011;23886;46.614;14.276;2023-04-03T10:53:53;1.20;;;1.10;;
12314;SDS011;23886;46.614;14.276;2023-04-03T10:56:25;1.27;;;1.17;;
12314;SDS011;23886;46.614;14.276;2023-04-03T10:58:58;1.53;;;1.10;;
12314;SDS011;23886;46.614;14.276;2023-04-03T11:01:36;1.57;;;1.10;;
12314;SDS011;23886;46.614;14.276;2023-04-03T11:04:06;2.17;;;1.00;;
12314;SDS011;23886;46.614;14.276;2023-04-03T11:06:36;1.40;;;1.30;;
12314;SDS011;23886;46.614;14.276;2023-04-03T11:09:07;1.00;;;1.00;;
12314;SDS011;23886;46.614;14.276;2023-04-03T11:11:43;2.23;;;1.13;;
12314;SDS011;23886;46.614;14.276;2023-04-03T11:14:14;1.20;;;1.10;;
12314;SDS011;23886;46.614;14.276;2023-04-03T11:16:50;1.03;;;0.97;;
12314;SDS011;23886;46.614;14.276;2023-04-03T11:19:26;1.20;;;1.10;;
12314;SDS011;23886;46.614;14.276;2023-04-03T11:22:01;1.63;;;1.30;;
12314;SDS011;23886;46.614;14.276;2023-04-03T11:24:34;1.40;;;1.30;;
12314;SDS011;23886;46.614;14.276;2023-04-03T11:27:05;1.43;;;1.33;;
12314;SDS011;23886;46.614;14.276;2023-04-03T11:29:35;1.40;;;1.20;;
12314;SDS011;23886;46.614;14.276;2023-04-03T11:32:13;1.47;;;1.23;;
12314;SDS011;23886;46.614;14.276;2023-04-03T11:34:54;1.20;;;1.10;;
12314;SDS011;23886;46.614;14.276;2023-04-03T11:37:26;1.30;;;1.00;;
12314;SDS011;23886;46.614;14.276;2023-04-03T11:39:58;1.73;;;1.63;;
12314;SDS011;23886;46.614;14.276;2023-04-03T11:42:30;1.20;;;1.10;;
12314;SDS011;23886;46.614;14.276;2023-04-03T11:48:01;0.90;;;0.90;;
12314;SDS011;23886;46.614;14.276;2023-04-03T11:50:39;2.23;;;1.20;;
12314;SDS011;23886;46.614;14.276;2023-04-03T11:56:02;0.87;;;0.87;;
12314;SDS011;23886;46.614;14.276;2023-04-03T11:58:43;2.03;;;1.10;;
12314;SDS011;23886;46.614;14.276;2023-04-03T12:01:43;1.50;;;1.40;;
12314;SDS011;23886;46.614;14.276;2023-04-03T12:04:14;1.20;;;1.00;;
12314;SDS011;23886;46.614;14.276;2023-04-03T12:24:30;1.60;;;1.30;;
12314;SDS011;23886;46.614;14.276;2023-04-03T12:27:02;2.33;;;1.87;;
12314;SDS011;23886;46.614;14.276;2023-04-03T12:29:33;1.30;;;1.20;;
12314;SDS011;23886;46.614;14.276;2023-04-03T12:32:08;1.60;;;1.50;;
12314;SDS011;23886;46.614;14.276;2023-04-03T12:34:49;1.50;;;1.40;;
12314;SDS011;23886;46.614;14.276;2023-04-03T12:40:39;1.43;;;1.33;;
12314;SDS011;23886;46.614;14.276;2023-04-03T12:43:18;2.83;;;1.50;;
12314;SDS011;23886;46.614;14.276;2023-04-03T12:45:56;1.53;;;1.37;;
12314;SDS011;23886;46.614;14.276;2023-04-03T12:48:28;1.23;;;1.13;;
12314;SDS011;23886;46.614;14.276;2023-04-03T12:50:57;1.53;;;1.43;;
12314;SDS011;23886;46.614;14.276;2023-04-03T12:53:25;1.30;;;1.20;;
12314;SDS011;23886;46.614;14.276;2023-04-03T12:55:57;1.43;;;1.30;;
12314;SDS011;23886;46.614;14.276;2023-04-03T12:58:44;1.70;;;1.60;;
12314;SDS011;23886;46.614;14.276;2023-04-03T13:01:12;1.63;;;1.53;;
12314;SDS011;23886;46.614;14.276;2023-04-03T13:03:44;1.30;;;1.20;;
12314;SDS011;23886;46.614;14.276;2023-04-03T13:06:14;1.60;;;1.40;;
12314;SDS011;23886;46.614;14.276;2023-04-03T13:08:51;4.87;;;1.60;;
12314;SDS011;23886;46.614;14.276;2023-04-03T13:11:21;2.07;;;1.70;;
12314;SDS011;23886;46.614;14.276;2023-04-03T13:13:56;1.50;;;1.40;;
12314;SDS011;23886;46.614;14.276;2023-04-03T13:16:24;1.70;;;1.60;;
12314;SDS011;23886;46.614;14.276;2023-04-03T13:18:53;1.60;;;1.50;;
12314;SDS011;23886;46.614;14.276;2023-04-03T13:21:21;1.87;;;1.60;;
12314;SDS011;23886;46.614;14.276;2023-04-03T13:23:50;1.40;;;1.30;;
12314;SDS011;23886;46.614;14.276;2023-04-03T13:26:22;1.77;;;1.67;;
12314;SDS011;23886;46.614;14.276;2023-04-03T13:28:53;1.67;;;1.20;;
12314;SDS011;23886;46.614;14.276;2023-04-03T13:31:25;1.93;;;1.40;;
12314;SDS011;23886;46.614;14.276;2023-04-03T13:33:55;1.40;;;1.30;;
12314;SDS011;23886;46.614;14.276;2023-04-03T13:36:35;1.43;;;1.33;;
12314;SDS011;23886;46.614;14.276;2023-04-03T13:39:05;1.17;;;1.10;;
12314;SDS011;23886;46.614;14.276;2023-04-03T13:41:48;1.53;;;1.43;;
12314;SDS011;23886;46.614;14.276;2023-04-03T13:44:18;1.50;;;1.40;;
12314;SDS011;23886;46.614;14.276;2023-04-03T13:46:57;2.70;;;1.57;;
12314;SDS011;23886;46.614;14.276;2023-04-03T13:49:31;1.20;;;1.10;;
12314;SDS011;23886;46.614;14.276;2023-04-03T13:52:01;1.10;;;1.10;;
12314;SDS011;23886;46.614;14.276;2023-04-03T13:54:30;1.43;;;1.27;;
12314;SDS011;23886;46.614;14.276;2023-04-03T13:57:02;3.80;;;1.13;;
12314;SDS011;23886;46.614;14.276;2023-04-03T13:59:38;1.20;;;1.10;;
12314;SDS011;23886;46.614;14.276;2023-04-03T14:02:10;1.33;;;1.17;;
12314;SDS011;23886;46.614;14.276;2023-04-03T14:04:45;1.77;;;1.10;;
12314;SDS011;23886;46.614;14.276;2023-04-03T14:07:21;1.70;;;1.23;;
12314;SDS011;23886;46.614;14.276;2023-04-03T14:09:49;1.60;;;1.50;;
12314;SDS011;23886;46.614;14.276;2023-04-03T14:12:18;1.90;;;1.80;;
12314;SDS011;23886;46.614;14.276;2023-04-03T14:14:54;2.53;;;1.70;;
12314;SDS011;23886;46.614;14.276;2023-04-03T14:17:23;1.30;;;1.20;;
12314;SDS011;23886;46.614;14.276;2023-04-03T14:19:52;1.67;;;1.57;;
12314;SDS011;23886;46.614;14.276;2023-04-03T14:22:20;1.50;;;1.40;;
12314;SDS011;23886;46.614;14.276;2023-04-03T14:24:49;1.20;;;1.10;;
12314;SDS011;23886;46.614;14.276;2023-04-03T14:27:19;1.20;;;1.10;;
12314;SDS011;23886;46.614;14.276;2023-04-03T14:29:48;1.40;;;1.30;;
12314;SDS011;23886;46.614;14.276;2023-04-03T14:32:17;2.13;;;1.27;;
12314;SDS011;23886;46.614;14.276;2023-04-03T14:34:46;1.40;;;1.30;;
12314;SDS011;23886;46.614;14.276;2023-04-03T14:37:15;1.30;;;1.20;;
12314;SDS011;23886;46.614;14.276;2023-04-03T14:39:44;1.37;;;1.13;;
12314;SDS011;23886;46.614;14.276;2023-04-03T14:42:13;1.13;;;1.13;;
12314;SDS011;23886;46.614;14.276;2023-04-03T14:44:43;1.33;;;1.20;;
12314;SDS011;23886;46.614;14.276;2023-04-03T14:47:11;1.53;;;1.27;;
12314;SDS011;23886;46.614;14.276;2023-04-03T14:49:39;1.20;;;1.10;;
12314;SDS011;23886;46.614;14.276;2023-04-03T14:52:09;2.13;;;1.03;;
12314;SDS011;23886;46.614;14.276;2023-04-03T14:54:45;1.30;;;1.17;;
12314;SDS011;23886;46.614;14.276;2023-04-03T14:57:12;1.40;;;1.30;;
12314;SDS011;23886;46.614;14.276;2023-04-03T14:59:42;2.73;;;1.40;;
12314;SDS011;23886;46.614;14.276;2023-04-03T15:02:16;1.97;;;1.20;;
12314;SDS011;23886;46.614;14.276;2023-04-03T15:04:51;2.33;;;1.07;;
12314;SDS011;23886;46.614;14.276;2023-04-03T15:07:18;2.93;;;1.40;;
12314;SDS011;23886;46.614;14.276;2023-04-03T15:09:45;1.20;;;1.20;;
12314;SDS011;23886;46.614;14.276;2023-04-03T15:12:12;1.23;;;1.13;;
12314;SDS011;23886;46.614;14.276;2023-04-03T15:14:39;3.00;;;1.23;;
12314;SDS011;23886;46.614;14.276;2023-04-03T15:17:10;2.00;;;1.13;;
12314;SDS011;23886;46.614;14.276;2023-04-03T15:19:42;1.10;;;1.00;;
12314;SDS011;23886;46.614;14.276;2023-04-03T15:22:10;1.43;;;1.07;;
12314;SDS011;23886;46.614;14.276;2023-04-03T15:24:40;1.40;;;1.30;;
12314;SDS011;23886;46.614;14.276;2023-04-03T15:27:07;1.30;;;1.20;;